Time;durP1;ratioP1;P1;durP2;ratioP2;P2;SDS_P1;SDS_P2;PMS_P1;PMS_P2;Temp;Humidity;BMP_temperature;BMP_pressure;BME280_temperature;BME280_humidity;BME280_pressure;Samples;Min_cycle;Max_cycle;Signal;HPM_P1;HPM_P2
2023/02/27 00:00:45;;;;;;;2.45;1.30;;;;;;;1.54;63.31;101760.56;5006123;28;20442;-42
2023/02/27 00:03:11;;;;;;;7.10;1.25;;;;;;;1.59;63.62;101768.53;5001704;28;20073;-42
2023/02/27 00:05:40;;;;;;;4.07;0.90;;;;;;;1.63;63.59;101760.28;5005639;28;20136;-44
2023/02/27 00:08:07;;;;;;;3.03;0.85;;;;;;;1.67;64.70;101754.56;4997535;28;20664;-40
2023/02/27 00:10:34;;;;;;;3.90;0.63;;;;;;;1.70;64.60;101762.41;5023200;28;20068;-41
2023/02/27 00:13:00;;;;;;;4.63;1.40;;;;;;;1.73;64.81;101762.63;5024034;28;20128;-42
2023/02/27 00:15:29;;;;;;;5.13;0.98;;;;;;;1.74;65.13;101764.38;5008384;28;21503;-42
2023/02/27 00:17:56;;;;;;;3.80;0.75;;;;;;;1.71;65.66;101774.41;5028417;28;20061;-41
2023/02/27 00:20:23;;;;;;;5.63;0.95;;;;;;;1.69;64.55;101773.41;5023575;28;20218;-45
2023/02/27 00:22:50;;;;;;;4.55;1.02;;;;;;;1.63;64.57;101771.38;5020119;28;20111;-41
2023/02/27 00:25:17;;;;;;;4.25;0.98;;;;;;;1.61;64.27;101772.94;5022501;28;20099;-44
2023/02/27 00:27:44;;;;;;;2.72;1.25;;;;;;;1.65;65.09;101782.56;5017361;28;20464;-43
2023/02/27 00:30:14;;;;;;;2.80;0.60;;;;;;;1.68;65.14;101784.41;5023540;28;20049;-40
2023/02/27 00:32:41;;;;;;;3.42;0.73;;;;;;;1.71;64.52;101779.50;5018871;28;20085;-42
2023/02/27 00:35:10;;;;;;;3.72;0.77;;;;;;;1.75;65.72;101776.34;5018325;28;20384;-46
2023/02/27 00:37:38;;;;;;;5.15;0.90;;;;;;;1.78;64.61;101774.00;5005137;28;20103;-43
2023/02/27 00:40:06;;;;;;;3.33;1.23;;;;;;;1.82;65.02;101772.50;5019002;28;20465;-44
2023/02/27 00:42:33;;;;;;;4.18;1.15;;;;;;;1.84;64.64;101775.13;5020243;28;20080;-44
2023/02/27 00:44:59;;;;;;;7.28;1.88;;;;;;;1.86;64.96;101774.44;4986040;28;20049;-42
2023/02/27 00:47:26;;;;;;;2.15;1.10;;;;;;;1.89;65.24;101773.75;5014813;28;20053;-44
2023/02/27 00:49:53;;;;;;;4.63;1.48;;;;;;;1.90;66.25;101772.97;5020752;28;20315;-43
2023/02/27 00:52:19;;;;;;;4.80;1.15;;;;;;;1.91;66.83;101779.84;5015721;28;20069;-47
2023/02/27 00:54:46;;;;;;;6.05;1.33;;;;;;;1.91;66.86;101778.19;5013317;28;20054;-42
2023/02/27 00:57:12;;;;;;;7.28;1.85;;;;;;;1.95;66.44;101779.22;5008906;28;20072;-42
2023/02/27 00:59:39;;;;;;;7.43;1.55;;;;;;;1.96;66.95;101775.00;5024508;28;20045;-47
2023/02/27 01:02:06;;;;;;;7.65;1.40;;;;;;;1.98;66.93;101781.97;5024219;28;20041;-45
2023/02/27 01:04:33;;;;;;;3.38;0.80;;;;;;;2.01;67.11;101779.63;4992559;28;20421;-43
2023/02/27 01:07:00;;;;;;;7.68;1.52;;;;;;;2.02;67.41;101783.94;5023587;28;20053;-44
2023/02/27 01:09:26;;;;;;;4.15;0.88;;;;;;;2.03;66.90;101778.00;5008068;28;20455;-42
2023/02/27 01:11:53;;;;;;;4.07;1.35;;;;;;;2.04;67.99;101779.81;5024886;28;20701;-45
2023/02/27 01:14:19;;;;;;;3.60;1.25;;;;;;;2.07;67.29;101780.75;5024637;28;20053;-42
2023/02/27 01:16:46;;;;;;;4.82;1.67;;;;;;;2.10;67.48;101775.84;5025856;28;20547;-43
2023/02/27 01:19:12;;;;;;;4.35;1.50;;;;;;;2.13;67.67;101781.16;5023561;28;20072;-44
2023/02/27 01:21:40;;;;;;;6.93;1.33;;;;;;;2.17;67.48;101785.66;5020319;28;20092;-42
2023/02/27 01:24:08;;;;;;;3.85;1.65;;;;;;;2.19;67.61;101778.94;5021142;28;20045;-44
2023/02/27 01:26:35;;;;;;;6.75;1.98;;;;;;;2.24;67.67;101784.34;5023203;28;20053;-40
2023/02/27 01:29:02;;;;;;;5.82;1.65;;;;;;;2.27;67.30;101781.97;5017412;28;20084;-43
2023/02/27 01:31:32;;;;;;;5.38;1.27;;;;;;;2.29;66.78;101786.38;5040874;28;20054;-40
2023/02/27 01:33:58;;;;;;;4.65;1.25;;;;;;;2.33;67.96;101786.56;5027318;28;20496;-44
2023/02/27 01:36:25;;;;;;;2.80;1.17;;;;;;;2.35;67.71;101778.19;5015477;28;20552;-42
2023/02/27 01:38:51;;;;;;;7.60;1.98;;;;;;;2.38;67.84;101780.03;5012883;28;20145;-43
2023/02/27 01:41:18;;;;;;;4.50;1.75;;;;;;;2.41;68.20;101780.22;5017640;28;20100;-44
2023/02/27 01:46:31;;;;;;;5.28;2.85;;;;;;;2.46;67.98;101773.69;5010843;28;20407;-43
2023/02/27 01:49:08;;;;;;;7.85;3.30;;;;;;;2.49;67.49;101772.97;4990161;28;20549;-43
2023/02/27 01:51:39;;;;;;;5.10;1.20;;;;;;;2.49;68.67;101768.75;4998076;28;20481;-43
2023/02/27 01:54:08;;;;;;;5.25;2.15;;;;;;;2.48;69.41;101767.00;4998905;28;20153;-41
2023/02/27 01:56:35;;;;;;;4.53;3.17;;;;;;;2.53;69.13;101765.56;4998135;28;20096;-42
2023/02/27 01:59:06;;;;;;;11.50;2.65;;;;;;;2.56;69.13;101765.75;4994746;28;20058;-42
2023/02/27 02:01:34;;;;;;;5.82;3.38;;;;;;;2.57;68.63;101772.63;4999547;28;20655;-46
2023/02/27 02:06:46;;;;;;;6.90;1.55;;;;;;;2.61;69.60;101767.69;5058251;27;20407;-40
2023/02/27 02:09:16;;;;;;;4.35;1.23;;;;;;;2.61;69.14;101767.69;5003719;28;20378;-43
2023/02/27 02:11:43;;;;;;;6.72;1.63;;;;;;;2.63;69.79;101766.13;5004911;28;20289;-44
2023/02/27 02:14:11;;;;;;;4.60;1.50;;;;;;;2.62;69.24;101759.22;4999289;28;20084;-42
2023/02/27 02:28:30;;;;;;;5.90;2.55;;;;;;;2.65;69.69;101759.41;5033393;28;20402;-44
2023/02/27 02:39:41;;;;;;;6.15;3.00;;;;;;;2.76;71.54;101763.47;5041513;28;20398;-46
2023/02/27 02:45:14;;;;;;;5.82;1.67;;;;;;;2.83;71.54;101765.59;5095278;27;20389;-41
2023/02/27 02:50:38;;;;;;;5.22;1.10;;;;;;;2.90;72.12;101758.25;5042729;28;20408;-40
2023/02/27 02:55:51;;;;;;;3.88;2.05;;;;;;;2.93;72.79;101753.28;5065866;27;20643;-45
2023/02/27 02:58:33;;;;;;;10.93;1.52;;;;;;;2.94;72.74;101758.50;5062148;28;20056;-43
2023/02/27 03:01:11;;;;;;;3.45;1.40;;;;;;;2.97;73.52;101756.91;5059422;28;20636;-44
2023/02/27 03:03:46;;;;;;;4.15;1.13;;;;;;;2.97;73.39;101760.34;5064799;28;20585;-40
2023/02/27 03:09:04;;;;;;;5.43;0.95;;;;;;;3.03;71.95;101758.13;5045117;28;20871;-42
2023/02/27 03:11:35;;;;;;;5.28;1.02;;;;;;;3.08;72.41;101763.53;5018981;28;20065;-42
2023/02/27 03:14:10;;;;;;;3.83;0.95;;;;;;;3.11;72.23;101758.59;5021396;28;20057;-41
2023/02/27 03:16:41;;;;;;;4.43;1.15;;;;;;;3.13;73.19;101759.53;5022130;28;20081;-41
2023/02/27 03:27:15;;;;;;;3.90;1.50;;;;;;;3.17;73.01;101755.44;5068215;27;20413;-41
2023/02/27 03:29:49;;;;;;;3.28;1.27;;;;;;;3.19;73.46;101743.63;5041022;28;20445;-42
2023/02/27 03:32:22;;;;;;;5.38;1.20;;;;;;;3.18;73.87;101752.13;5035808;28;20107;-40
2023/02/27 03:34:48;;;;;;;5.32;1.70;;;;;;;3.21;73.60;101742.03;5042037;28;20045;-43
2023/02/27 03:37:26;;;;;;;7.07;1.65;;;;;;;3.25;73.63;101749.09;5039133;28;20723;-44
2023/02/27 03:40:05;;;;;;;9.57;2.28;;;;;;;3.25;73.31;101754.22;5039045;28;20556;-42
2023/02/27 03:45:34;;;;;;;5.97;3.13;;;;;;;3.26;73.47;101755.97;5088901;27;20387;-40
2023/02/27 03:48:02;;;;;;;7.05;3.10;;;;;;;3.26;73.67;101753.41;5088489;28;20411;-40
2023/02/27 03:50:29;;;;;;;6.43;3.33;;;;;;;3.28;73.64;101744.13;5094862;28;20072;-39
2023/02/27 03:52:56;;;;;;;5.03;3.25;;;;;;;3.30;73.89;101752.78;5098143;27;20075;-41
2023/02/27 03:55:31;;;;;;;4.93;3.33;;;;;;;3.30;73.08;101747.66;5091600;28;20072;-42
2023/02/27 03:57:59;;;;;;;6.95;3.33;;;;;;;3.33;73.08;101737.59;5095075;28;20047;-42
2023/02/27 04:00:27;;;;;;;5.00;3.08;;;;;;;3.33;73.89;101747.84;5098678;27;20047;-39
2023/02/27 04:02:57;;;;;;;5.25;2.78;;;;;;;3.32;73.99;101746.03;5098267;28;20044;-44
2023/02/27 04:05:23;;;;;;;5.70;3.28;;;;;;;3.32;73.66;101748.59;5092974;28;20101;-41
2023/02/27 04:08:30;;;;;;;5.70;3.60;;;;;;;3.32;73.54;101755.44;5094534;28;20082;-43
2023/02/27 04:16:32;;;;;;;6.88;1.95;;;;;;;3.36;73.77;101738.53;5031544;28;20402;-40
2023/02/27 04:32:39;;;;;;;4.22;2.15;;;;;;;3.39;74.38;101736.16;5054737;28;20405;-38
2023/02/27 04:35:14;;;;;;;3.75;1.70;;;;;;;3.39;74.81;101744.72;5034835;28;20057;-43
2023/02/27 04:37:47;;;;;;;4.80;2.20;;;;;;;3.38;75.29;101739.50;5036194;28;20490;-40
2023/02/27 04:40:19;;;;;;;3.10;1.60;;;;;;;3.40;75.58;101743.91;5019895;28;20501;-44
2023/02/27 04:42:53;;;;;;;5.75;2.28;;;;;;;3.40;75.15;101737.91;5035528;28;20060;-39
2023/02/27 04:45:23;;;;;;;5.32;2.35;;;;;;;3.40;75.61;101743.03;5034629;28;20045;-43
2023/02/27 04:47:57;;;;;;;5.70;2.25;;;;;;;3.42;75.69;101746.56;5032713;28;20050;-41
2023/02/27 04:50:31;;;;;;;5.28;2.50;;;;;;;3.41;75.69;101744.81;5032713;28;20111;-44
2023/02/27 04:53:04;;;;;;;2.72;1.27;;;;;;;3.40;76.12;101730.22;5025318;28;20048;-43
2023/02/27 04:55:37;;;;;;;6.00;2.75;;;;;;;3.40;75.64;101743.03;5034416;28;20339;-47
2023/02/27 04:58:13;;;;;;;3.40;1.23;;;;;;;3.40;75.80;101743.03;5032784;28;20058;-40
2023/02/27 05:00:44;;;;;;;5.43;2.08;;;;;;;3.43;75.86;101745.75;5031042;28;20068;-43
2023/02/27 05:03:21;;;;;;;6.47;2.05;;;;;;;3.44;75.37;101739.81;5025370;28;20050;-43
2023/02/27 05:05:51;;;;;;;6.03;1.80;;;;;;;3.45;74.84;101746.72;5032047;28;20139;-40
2023/02/27 05:08:26;;;;;;;3.58;1.80;;;;;;;3.48;75.25;101749.47;5034084;28;20049;-41
2023/02/27 05:13:45;;;;;;;4.20;3.22;;;;;;;3.44;74.88;101750.06;5010019;28;20423;-40
2023/02/27 05:18:53;;;;;;;5.97;2.05;;;;;;;3.46;75.59;101754.50;5042939;28;20407;-43
2023/02/27 05:29:50;;;;;;;5.05;1.58;;;;;;;3.43;75.43;101748.31;5119579;27;20388;-41
2023/02/27 05:37:50;;;;;;;6.78;3.70;;;;;;;3.39;74.80;101751.50;5022774;27;20418;-44
2023/02/27 05:40:24;;;;;;;8.57;4.32;;;;;;;3.39;75.24;101746.38;5012347;28;20501;-45
2023/02/27 05:43:01;;;;;;;6.60;2.90;;;;;;;3.40;74.83;101748.16;5012039;28;20706;-45
2023/02/27 05:45:30;;;;;;;7.28;3.88;;;;;;;3.39;75.31;101746.38;5015281;28;20064;-43
2023/02/27 05:48:04;;;;;;;6.55;3.78;;;;;;;3.39;75.93;101756.63;5011226;28;20160;-43
2023/02/27 05:50:32;;;;;;;5.40;3.60;;;;;;;3.41;75.54;101760.19;5012202;28;20111;-40
2023/02/27 05:53:08;;;;;;;6.72;3.72;;;;;;;3.44;75.33;101744.94;5016070;28;20599;-42
2023/02/27 05:55:39;;;;;;;8.35;3.40;;;;;;;3.43;76.12;101756.00;5009311;28;20104;-44
2023/02/27 06:03:20;;;;;;;9.57;4.65;;;;;;;3.39;75.85;101752.41;5045816;28;20405;-42
2023/02/27 06:05:51;;;;;;;7.30;4.70;;;;;;;3.38;76.23;101753.19;5036860;28;20045;-42
2023/02/27 06:08:19;;;;;;;9.32;3.92;;;;;;;3.38;76.75;101754.88;5040358;28;20050;-43
2023/02/27 06:10:47;;;;;;;7.40;4.80;;;;;;;3.38;76.84;101758.31;5022013;28;20096;-43
2023/02/27 06:13:16;;;;;;;8.02;3.60;;;;;;;3.38;76.46;101760.00;5029050;28;20120;-43
2023/02/27 06:15:43;;;;;;;5.93;3.72;;;;;;;3.39;76.74;101767.78;5053860;28;20499;-43
2023/02/27 06:18:11;;;;;;;9.55;6.07;;;;;;;3.38;77.38;101760.88;5035015;28;20058;-44
2023/02/27 06:20:38;;;;;;;8.20;4.25;;;;;;;3.38;76.66;101770.25;5037840;28;20073;-43
2023/02/27 06:23:06;;;;;;;8.20;3.95;;;;;;;3.40;76.87;101763.50;5036305;28;20045;-39
2023/02/27 06:25:33;;;;;;;12.75;3.33;;;;;;;3.41;76.71;101755.91;5041943;28;20512;-46
2023/02/27 06:28:00;;;;;;;12.23;4.53;;;;;;;3.42;76.77;101764.50;5042309;28;20500;-42
2023/02/27 06:30:27;;;;;;;7.55;3.75;;;;;;;3.39;77.87;101765.22;5042961;28;20563;-42
2023/02/27 06:32:53;;;;;;;5.55;3.13;;;;;;;3.44;77.43;101770.56;5050208;28;20056;-41
2023/02/27 06:35:20;;;;;;;5.88;3.67;;;;;;;3.45;77.27;101764.66;5037015;28;20103;-41
2023/02/27 06:37:47;;;;;;;9.02;4.80;;;;;;;3.43;77.11;101768.81;5041864;28;20049;-39
2023/02/27 06:40:14;;;;;;;10.73;4.30;;;;;;;3.46;76.66;101764.75;5035761;28;20077;-42
2023/02/27 06:42:42;;;;;;;9.85;4.72;;;;;;;3.52;76.77;101764.22;5031603;28;20100;-42
2023/02/27 06:45:10;;;;;;;10.65;2.78;;;;;;;3.50;76.83;101770.91;5038706;28;20502;-43
2023/02/27 06:47:38;;;;;;;8.93;5.13;;;;;;;3.51;76.32;101767.53;5029819;28;20136;-44
2023/02/27 06:50:06;;;;;;;11.20;4.32;;;;;;;3.50;76.43;101767.47;5036093;28;20126;-41
2023/02/27 06:52:33;;;;;;;9.90;3.75;;;;;;;3.49;76.23;101776.84;5035118;28;20072;-42
2023/02/27 06:55:00;;;;;;;8.05;4.68;;;;;;;3.49;76.51;101779.41;5027250;28;20496;-44
2023/02/27 06:57:26;;;;;;;11.77;4.28;;;;;;;3.50;75.34;101786.28;5037631;28;20053;-43
2023/02/27 06:59:53;;;;;;;6.43;4.05;;;;;;;3.49;76.07;101789.66;5031792;28;20049;-49
2023/02/27 07:02:19;;;;;;;7.55;4.03;;;;;;;3.47;75.91;101788.69;5028803;28;20046;-41
2023/02/27 07:04:46;;;;;;;10.70;3.85;;;;;;;3.46;76.39;101794.59;5036642;28;20041;-42
2023/02/27 07:07:13;;;;;;;8.73;2.33;;;;;;;3.44;76.47;101801.31;5033360;28;20594;-45
2023/02/27 07:09:59;;;;;;;8.80;4.15;;;;;;;3.40;76.46;101804.50;5031143;28;20053;-47
2023/02/27 07:12:25;;;;;;;7.47;3.42;;;;;;;3.39;76.65;101802.75;5034944;28;20049;-47
2023/02/27 07:14:52;;;;;;;7.25;4.40;;;;;;;3.40;75.99;101807.06;5018803;28;20128;-46
2023/02/27 07:17:18;;;;;;;11.52;3.90;;;;;;;3.40;75.82;101812.19;5022018;28;20084;-44
2023/02/27 07:19:45;;;;;;;7.28;3.65;;;;;;;3.41;76.49;101806.28;5020358;28;20532;-42
2023/02/27 07:22:11;;;;;;;9.68;4.88;;;;;;;3.42;76.75;101813.16;5019129;28;20103;-43
2023/02/27 07:24:38;;;;;;;9.15;5.95;;;;;;;3.41;75.80;101816.53;5024352;28;20134;-43
2023/02/27 07:27:05;;;;;;;10.40;4.70;;;;;;;3.41;76.48;101811.41;5026609;28;20053;-48
2023/02/27 07:29:31;;;;;;;8.73;5.70;;;;;;;3.41;75.76;101819.09;5023280;28;20107;-40
2023/02/27 07:31:58;;;;;;;8.48;4.15;;;;;;;3.42;75.67;101813.16;5024838;28;20527;-44
2023/02/27 07:34:24;;;;;;;7.35;4.53;;;;;;;3.45;76.28;101813.34;5023943;28;20049;-43
2023/02/27 07:36:51;;;;;;;7.93;4.03;;;;;;;3.48;75.76;101823.78;5022134;28;20045;-40
2023/02/27 07:39:18;;;;;;;10.52;5.68;;;;;;;3.47;75.97;101816.84;5020317;28;20057;-44
2023/02/27 07:41:44;;;;;;;11.35;4.97;;;;;;;3.51;75.71;101823.03;5014465;28;20073;-45
2023/02/27 07:44:12;;;;;;;8.63;4.65;;;;;;;3.52;76.12;101824.81;5014937;28;20049;-42
2023/02/27 07:46:38;;;;;;;7.05;4.45;;;;;;;3.53;76.21;101822.31;5019338;28;20566;-41
2023/02/27 07:49:05;;;;;;;8.20;4.60;;;;;;;3.57;76.53;101821.69;5020184;28;20060;-42
2023/02/27 07:51:32;;;;;;;8.20;3.65;;;;;;;3.61;76.34;101827.84;5010125;28;20457;-44
2023/02/27 07:53:58;;;;;;;13.10;6.97;;;;;;;3.67;76.30;101829.88;5019982;28;20056;-44
2023/02/27 07:56:26;;;;;;;17.30;9.02;;;;;;;3.70;76.60;101837.72;5012293;28;20072;-49
2023/02/27 07:58:53;;;;;;;11.43;4.53;;;;;;;3.77;75.96;101832.16;5011224;28;20648;-43
2023/02/27 08:01:20;;;;;;;6.97;3.58;;;;;;;3.82;76.35;101835.81;5016686;28;20386;-41
2023/02/27 08:03:46;;;;;;;10.77;4.47;;;;;;;3.91;76.21;101842.25;5011055;28;20052;-47
2023/02/27 08:06:13;;;;;;;6.60;4.10;;;;;;;3.99;76.13;101838.44;5018773;28;20096;-43
2023/02/27 08:08:40;;;;;;;6.60;3.95;;;;;;;4.04;75.72;101837.00;5018257;28;20540;-43
2023/02/27 08:11:07;;;;;;;8.45;4.90;;;;;;;4.08;75.87;101838.91;5015922;28;20475;-42
2023/02/27 08:13:34;;;;;;;5.80;3.10;;;;;;;4.12;76.10;101845.06;5015716;28;20469;-44
2023/02/27 08:16:21;;;;;;;7.60;4.55;;;;;;;4.21;75.87;101844.69;5012853;28;20144;-41
2023/02/27 08:18:47;;;;;;;9.90;4.22;;;;;;;4.27;75.75;101839.88;5010809;28;20057;-45
2023/02/27 08:21:14;;;;;;;16.60;8.55;;;;;;;4.36;75.74;101845.47;5013556;28;20096;-40
2023/02/27 08:23:41;;;;;;;9.32;5.28;;;;;;;4.46;76.04;101851.09;5010175;28;20042;-42
2023/02/27 08:26:08;;;;;;;5.28;4.25;;;;;;;4.58;75.65;101854.28;5017414;28;20048;-40
2023/02/27 08:28:34;;;;;;;10.68;3.80;;;;;;;4.62;75.95;101858.78;5011269;28;20457;-41
2023/02/27 08:31:01;;;;;;;5.05;3.42;;;;;;;4.65;75.40;101862.28;5006274;28;20212;-41
2023/02/27 08:33:28;;;;;;;9.38;5.93;;;;;;;4.71;75.24;101860.03;5014954;28;20053;-42
2023/02/27 08:35:55;;;;;;;9.80;4.13;;;;;;;4.71;75.24;101858.38;5014369;28;20045;-43
2023/02/27 08:38:26;;;;;;;7.70;3.42;;;;;;;4.71;75.67;101849.78;5016002;28;20707;-40
2023/02/27 08:40:53;;;;;;;8.57;4.57;;;;;;;4.71;75.22;101858.38;5023031;28;20104;-40
2023/02/27 08:43:20;;;;;;;9.95;5.05;;;;;;;4.80;75.14;101845.09;5019753;28;20053;-43
2023/02/27 08:45:48;;;;;;;8.45;3.45;;;;;;;4.97;75.71;101845.06;5021109;28;20124;-44
2023/02/27 08:48:16;;;;;;;7.20;4.72;;;;;;;5.05;74.64;101848.91;5030030;28;20057;-42
2023/02/27 08:50:44;;;;;;;9.10;4.15;;;;;;;5.10;74.56;101852.56;5024787;28;20049;-45
2023/02/27 08:53:11;;;;;;;8.52;4.93;;;;;;;5.17;75.15;101850.31;5021641;28;20136;-42
2023/02/27 08:55:41;;;;;;;6.75;4.28;;;;;;;5.28;74.86;101838.84;5018800;28;20068;-42
2023/02/27 08:58:09;;;;;;;9.88;3.83;;;;;;;5.30;74.40;101839.78;5022054;28;20052;-43
2023/02/27 09:00:35;;;;;;;5.10;3.63;;;;;;;5.33;75.20;101841.66;5018463;28;20107;-41
2023/02/27 09:03:02;;;;;;;11.80;3.53;;;;;;;5.30;74.34;101844.94;5011471;28;20174;-42
2023/02/27 09:05:33;;;;;;;9.70;4.60;;;;;;;5.28;75.19;101851.69;5016282;28;20137;-41
2023/02/27 09:08:01;;;;;;;5.47;3.47;;;;;;;5.24;74.88;101844.66;5013322;28;20045;-43
2023/02/27 09:10:28;;;;;;;6.07;4.40;;;;;;;5.25;74.32;101856.69;5019863;28;20041;-47
2023/02/27 09:12:55;;;;;;;8.20;5.35;;;;;;;5.23;75.13;101853.16;5013992;28;20099;-43
2023/02/27 09:15:23;;;;;;;7.50;3.28;;;;;;;5.24;75.00;101850.66;5013418;28;20124;-45
2023/02/27 09:17:50;;;;;;;4.38;2.60;;;;;;;5.24;74.77;101854.94;5001945;28;20313;-46
2023/02/27 09:20:17;;;;;;;6.28;4.10;;;;;;;5.24;75.02;101855.78;5014803;28;20073;-42
2023/02/27 09:22:44;;;;;;;13.90;7.22;;;;;;;5.23;74.51;101858.28;5019902;28;20080;-41
2023/02/27 09:25:11;;;;;;;6.80;3.83;;;;;;;5.26;74.91;101863.56;5018615;28;20053;-41
2023/02/27 09:27:37;;;;;;;11.32;6.43;;;;;;;5.27;75.11;101868.78;5019401;28;20099;-42
2023/02/27 09:30:05;;;;;;;12.30;4.70;;;;;;;5.25;74.73;101866.97;5016139;28;20099;-44
2023/02/27 09:32:31;;;;;;;12.75;7.22;;;;;;;5.30;74.72;101875.75;5018991;28;20050;-43
2023/02/27 09:35:02;;;;;;;5.78;3.78;;;;;;;5.36;75.59;101868.38;5022182;28;20111;-44
2023/02/27 09:37:28;;;;;;;;;;;;;;;5.46;75.78;101873.94;5015618;28;20076;-47
2023/02/27 09:39:55;;;;;;;17.70;7.45;;;;;;;5.71;75.55;101872.53;5018991;28;19952;-41
2023/02/27 09:42:27;;;;;;;6.43;4.45;;;;;;;5.81;74.25;101872.13;5015352;28;20057;-45
2023/02/27 09:45:00;;;;;;;7.45;4.40;;;;;;;5.99;73.45;101879.84;5023280;28;20111;-41
2023/02/27 09:47:38;;;;;;;7.22;3.67;;;;;;;6.10;74.15;101882.94;5016542;28;20053;-46
2023/02/27 09:52:41;;;;;;;4.38;3.00;;;;;;;6.38;73.46;101884.16;5024795;27;20398;-44
2023/02/27 09:55:18;;;;;;;4.65;1.48;;;;;;;6.28;74.10;101884.56;5030106;28;20045;-42
2023/02/27 09:58:13;;;;;;;2.33;1.15;;;;;;;6.29;72.76;101884.63;5031398;28;20053;-44
2023/02/27 10:00:50;;;;;;;5.93;2.10;;;;;;;6.29;72.94;101878.63;5033280;28;20079;-41
2023/02/27 10:06:33;;;;;;;4.53;1.50;;;;;;;6.37;72.90;101877.25;5094429;27;20393;-43
2023/02/27 10:12:03;;;;;;;2.05;1.25;;;;;;;6.59;72.32;101883.38;5040272;28;20419;-42
2023/02/27 10:17:16;;;;;;;2.92;1.17;;;;;;;7.38;72.52;101883.16;5013831;28;20409;-43
2023/02/27 10:19:45;;;;;;;2.90;1.23;;;;;;;7.70;71.34;101875.78;5013180;28;20081;-43
2023/02/27 10:22:18;;;;;;;3.03;1.02;;;;;;;7.76;70.51;101877.72;5008705;28;20559;-43
2023/02/27 10:24:51;;;;;;;4.13;2.00;;;;;;;7.68;70.59;101876.56;5010992;28;20493;-42
2023/02/27 10:27:20;;;;;;;3.28;0.80;;;;;;;7.54;70.84;101878.59;5003392;28;20053;-42
2023/02/27 10:29:47;;;;;;;4.97;1.13;;;;;;;7.41;71.08;101882.38;5010481;28;20046;-44
2023/02/27 10:32:21;;;;;;;2.30;0.95;;;;;;;7.21;71.39;101885.03;5006540;28;20295;-47
2023/02/27 10:34:54;;;;;;;2.75;1.50;;;;;;;7.08;70.27;101888.81;5003456;28;20054;-43
2023/02/27 10:37:24;;;;;;;5.18;3.80;;;;;;;6.96;71.38;101889.19;5008084;28;20131;-41
2023/02/27 10:39:56;;;;;;;5.53;3.35;;;;;;;6.90;71.76;101888.94;5007745;28;20187;-45
2023/02/27 10:42:26;;;;;;;4.50;3.60;;;;;;;6.80;72.27;101885.09;5035138;28;20057;-48
2023/02/27 10:44:54;;;;;;;2.53;1.60;;;;;;;6.73;71.28;101883.06;5010221;28;20058;-45
2023/02/27 10:47:23;;;;;;;1.95;1.23;;;;;;;6.61;71.43;101881.72;5014067;28;20064;-43
2023/02/27 10:49:52;;;;;;;3.50;1.08;;;;;;;6.59;71.97;101883.38;5004119;28;20049;-45
2023/02/27 10:52:19;;;;;;;2.25;0.93;;;;;;;6.58;71.51;101888.44;5005172;28;20088;-47
2023/02/27 10:54:46;;;;;;;4.82;1.33;;;;;;;6.65;72.31;101888.75;5005271;28;20058;-41
2023/02/27 10:57:27;;;;;;;2.17;0.20;;;;;;;6.69;72.10;101880.34;5009607;28;20050;-42
2023/02/27 10:59:57;;;;;;;1.40;0.82;;;;;;;6.68;70.59;101883.75;5008840;28;20132;-48
2023/02/27 11:02:35;;;;;;;3.08;1.33;;;;;;;6.73;71.33;101890.78;5003485;28;20053;-42
2023/02/27 11:05:05;;;;;;;2.13;0.65;;;;;;;6.76;70.72;101890.91;5004575;28;20074;-44
2023/02/27 11:07:35;;;;;;;3.30;1.13;;;;;;;6.72;70.10;101886.47;5007858;28;20085;-47
2023/02/27 11:10:19;;;;;;;;;;;;;;;6.65;71.14;101893.91;5008183;28;20092;-47
2023/02/27 11:13:05;;;;;;;2.10;0.65;;;;;;;6.68;70.34;101888.91;5006092;28;20022;-43
2023/02/27 11:15:35;;;;;;;1.23;0.45;;;;;;;6.75;70.04;101884.03;5011357;28;20081;-44
2023/02/27 11:21:09;;;;;;;6.90;2.03;;;;;;;6.78;69.31;101894.44;5065392;27;20473;-45
2023/02/27 11:23:36;;;;;;;8.35;2.13;;;;;;;6.83;69.96;101887.78;5015934;28;20085;-44
2023/02/27 11:26:18;;;;;;;1.38;1.25;;;;;;;6.81;70.64;101889.41;5017411;28;20053;-46
2023/02/27 11:28:44;;;;;;;4.93;2.58;;;;;;;6.86;69.10;101887.91;5032336;28;20080;-41
2023/02/27 11:31:21;;;;;;;8.80;1.95;;;;;;;6.90;70.01;101894.97;5034095;28;20053;-43
2023/02/27 11:33:52;;;;;;;3.50;2.92;;;;;;;6.93;70.01;101895.06;5031745;28;20069;-41
2023/02/27 11:36:22;;;;;;;3.75;1.70;;;;;;;7.00;70.46;101896.25;5031672;28;20095;-42
2023/02/27 11:38:53;;;;;;;4.95;1.98;;;;;;;7.07;69.92;101893.06;5032420;28;20059;-42
2023/02/27 11:41:36;;;;;;;4.35;1.17;;;;;;;7.13;69.72;101883.84;5013119;28;20251;-41
2023/02/27 11:44:04;;;;;;;4.70;2.78;;;;;;;7.16;69.68;101887.44;5018406;28;20073;-46
2023/02/27 11:46:31;;;;;;;9.73;3.67;;;;;;;7.26;68.92;101877.50;5021090;28;20049;-42
2023/02/27 12:00:07;;;;;;;28.90;11.23;;;;;;;7.45;68.77;101874.84;5052022;27;20386;-42
2023/02/27 12:05:28;;;;;;;26.83;8.77;;;;;;;7.53;68.06;101866.53;5039473;27;20409;-44
2023/02/27 12:08:01;;;;;;;1.63;1.27;;;;;;;7.51;68.20;101866.47;5036578;28;20509;-45
2023/02/27 12:10:34;;;;;;;2.38;0.93;;;;;;;7.45;67.57;101867.13;5036906;28;20056;-44
2023/02/27 12:29:14;;;;;;;2.30;1.92;;;;;;;7.63;67.78;101863.47;5026147;27;20626;-43
2023/02/27 12:31:47;;;;;;;6.28;1.23;;;;;;;7.69;67.91;101862.84;5011800;28;22295;-44
2023/02/27 12:34:45;;;;;;;5.35;0.95;;;;;;;7.70;66.95;101855.16;5007143;28;20092;-40
2023/02/27 12:37:16;;;;;;;4.93;1.77;;;;;;;7.88;67.02;101859.28;5017300;28;20044;-42
2023/02/27 12:39:44;;;;;;;7.20;2.15;;;;;;;7.98;67.84;101848.44;5012912;28;20173;-44
2023/02/27 12:42:51;;;;;;;2.83;2.50;;;;;;;8.12;66.89;101847.22;5020346;28;20465;-44
2023/02/27 12:48:29;;;;;;;1.10;0.95;;;;;;;7.97;66.14;101846.69;5036248;28;20379;-47
2023/02/27 12:56:22;;;;;;;5.53;1.40;;;;;;;7.83;66.52;101847.88;5056354;27;20407;-48
2023/02/27 13:01:59;;;;;;;2.13;1.17;;;;;;;7.88;67.12;101843.78;5027162;27;20413;-45
2023/02/27 13:07:08;;;;;;;4.90;2.83;;;;;;;8.09;66.35;101827.34;5074584;27;20419;-42
2023/02/27 13:10:00;;;;;;;7.28;3.10;;;;;;;8.19;66.67;101838.88;5059870;28;20068;-44
2023/02/27 13:15:10;;;;;;;7.35;3.58;;;;;;;8.45;66.02;101826.88;5111904;27;21228;-42
2023/02/27 13:17:40;;;;;;;6.90;3.58;;;;;;;8.54;65.39;101833.25;5056396;28;20107;-44
2023/02/27 13:20:31;;;;;;;4.53;2.05;;;;;;;8.49;65.79;101826.16;5074370;28;20045;-45
2023/02/27 13:25:45;;;;;;;8.23;2.92;;;;;;;8.66;64.32;101815.56;5063251;27;20398;-43
2023/02/27 13:28:15;;;;;;;7.20;3.42;;;;;;;8.60;64.40;101821.41;5052720;28;20082;-43
2023/02/27 13:30:51;;;;;;;2.72;2.08;;;;;;;8.57;63.51;101820.41;5030501;28;20073;-44
2023/02/27 13:33:29;;;;;;;6.93;2.67;;;;;;;8.61;64.14;101811.94;5049309;28;20151;-44
2023/02/27 13:38:50;;;;;;;3.42;0.50;;;;;;;8.60;63.49;101811.06;5055544;27;20400;-45
2023/02/27 13:44:00;;;;;;;1.45;0.32;;;;;;;8.57;63.42;101815.25;5018966;27;20905;-44
2023/02/27 13:46:29;;;;;;;1.70;0.55;;;;;;;8.48;62.77;101798.56;5017441;28;20049;-48
2023/02/27 13:51:45;;;;;;;2.10;1.50;;;;;;;8.32;63.11;101809.22;5046709;27;20477;-45
2023/02/27 13:54:18;;;;;;;2.40;1.63;;;;;;;8.32;63.11;101804.94;5004749;28;20414;-44
2023/02/27 13:59:32;;;;;;;0.55;0.30;;;;;;;8.34;63.88;101802.38;5070227;27;20398;-44
2023/02/27 14:02:03;;;;;;;2.17;0.70;;;;;;;8.36;64.33;101811.06;4998128;27;20100;-44
2023/02/27 14:04:34;;;;;;;1.45;0.32;;;;;;;8.28;62.85;101807.34;5010959;28;20049;-42
2023/02/27 14:09:44;;;;;;;1.33;0.70;;;;;;;8.19;62.87;101813.06;5026296;28;20410;-42
2023/02/27 14:12:32;;;;;;;0.65;0.57;;;;;;;8.12;63.63;101817.13;4990403;28;20051;-44
2023/02/27 14:18:46;;;;;;;1.27;0.40;;;;;;;8.16;63.85;101808.66;5029177;28;20387;-45
2023/02/27 14:21:53;;;;;;;2.10;0.30;;;;;;;8.15;63.42;101817.25;4982450;28;20151;-44
2023/02/27 14:24:25;;;;;;;1.08;0.40;;;;;;;8.21;64.52;101811.41;4977845;28;20100;-45
2023/02/27 14:26:53;;;;;;;1.38;0.30;;;;;;;8.29;64.49;101809.09;4998131;28;20077;-43
2023/02/27 14:29:24;;;;;;;3.72;0.68;;;;;;;8.35;63.58;101809.31;4998672;28;20046;-44
2023/02/27 14:31:53;;;;;;;1.15;0.52;;;;;;;8.41;64.03;101806.94;4998059;28;20101;-44
2023/02/27 14:34:20;;;;;;;3.92;0.85;;;;;;;8.47;64.10;101802.00;4994769;28;20050;-45
2023/02/27 14:36:53;;;;;;;5.13;0.85;;;;;;;8.52;64.01;101796.09;4996508;28;20046;-43
2023/02/27 14:39:31;;;;;;;1.85;0.60;;;;;;;8.49;63.50;101802.91;5001166;28;20109;-48
2023/02/27 14:42:15;;;;;;;0.98;0.47;;;;;;;8.55;62.59;101802.28;4993104;28;20133;-43